AirNav   Advertisement
 
 365 users online  

8GA9 Brook Bridge Aerodrome
Vaughn, Georgia, USA

GOING TO VAUGHN?


FAA INFORMATION EFFECTIVE 20 JULY 2017

Location

FAA Identifier: 8GA9
Lat/Long: 33-16-36.4230N / 084-24-38.7290W
33-16.607050N / 084-24.645483W
33.2767842 / -84.4107581
(estimated)
Elevation: 820 ft. / 250 m (estimated)
Variation: 02W (1985)
From city: 2 miles W of VAUGHN, GA
Time zone: UTC -4 (UTC -5 during Standard Time)
Zip code: 30223

Airport Operations

Airport use: Private use. Permission required prior to landing
Activation date: 02/1981
Control tower: no
ARTCC: ATLANTA CENTER
FSS: MACON FLIGHT SERVICE STATION
Attendance: UNATNDD
Wind indicator: yes
Segmented circle: no

Airport Communications

WX AWOS-3 at 6A2 (7 nm SE): 119.750 (770-227-3934)
WX AWOS-3 at HMP (8 nm NE): 124.825 (770-707-1719)
WX ASOS at FFC (9 nm NW): 118.525 (770-487-1610)
WX AWOS-3PT at CCO (18 nm W): 118.975 (770-254-1617)

Nearby radio navigation aids

VOR radial/distance  VOR name  Freq  Var
ATLr182/21.2ATLANTA VORTAC116.9005W
PDKr194/36.4PEACHTREE VOR/DME116.6005W

 
NDB name  Hdg/Dist  Freq  Var  ID
PECAT116/4.131605WFFC ..-. ..-. -.-.
COWETA COUNTY089/15.223403WEQQ . --.- --.-
PINE MOUNTAIN045/34.927203WPIM .--. .. --
ALCOVY239/37.937003WVOF ...- --- ..-.

Airport Services

Runway Information

Runway 2/20

Dimensions: 2970 x 150 ft. / 905 x 46 m
Surface: turf
RUNWAY 2  RUNWAY 20
Traffic pattern: leftright
Obstructions: pline, markedtrees

Airport Ownership and Management from official FAA records

Ownership: Privately-owned
Owner: BROOK BRIDGE HOMEOWNERS ASSN
126 HUFF DALAND CIRCLE
GRIFFIN, GA 30223
Phone 770-227-2248
Manager: BROOK BRIDGE HOMEOWNERS ASSN
126 HUFF DALAND CIRCLE
GRIFFIN, GA 30223
Phone 770-227-2248

Airport Operational Statistics

Aircraft based on the field: 13
Single engine airplanes: 10
Multi engine airplanes: 1
Helicopters: 2
    

Instrument Procedures

There are no published instrument procedures at 8GA9.

Some nearby airports with instrument procedures:

6A2 - Griffin-Spalding County Airport (7 nm SE)
KHMP - Henry County Airport (8 nm NE)
KFFC - Atlanta Regional Airport-Falcon Field (9 nm NW)
KCCO - Newnan Coweta County Airport (18 nm W)
KOPN - Thomaston-Upson County Airport (21 nm S)
 
Loc | Ops | Rwys | IFR | FBO | Links
Com | Nav | Svcs | Stats | Notes


 
Area around 8GA9 (Brook Bridge Aerodrome)
 
Road maps at: MapQuest Bing Google
 
Aerial photo
No photo
 
Sectional chart

 
Airport distance calculator
Flying to Brook Bridge Aerodrome? Find the distance to fly.

From to 8GA9

Sunrise and sunset
Times for 22-Jul-2017
 Local
(UTC-4)
 Zulu
(UTC)
Morning civil twilight06:1710:17
Sunrise06:4510:45
Sunset20:4300:43
Evening civil twilight21:1101:11

Current date and time
Zulu (UTC)  22-Jul-2017 06:43:08
Local (UTC-4)  22-Jul-2017 02:43:08
 
METAR
K6A2 
7nm SE 
220615Z AUTO 27005KT 10SM SCT100 25/23 A3001 RMK AO2
KHMP 
8nm NE 
220615Z AUTO 00000KT 10SM CLR 24/23 A3001 RMK AO2 T02400225
KFFC 
9nm NW 
220553Z AUTO 00000KT 8SM CLR 24/22 A3002 RMK AO2 SLP157 T02390222 10300 20239 58012
KCCO 
18nm W 
220615Z AUTO 00000KT 10SM CLR 24/24 A3002 RMK AO2 T02380235
TAF
KATL 
21nm N 
220532Z 2206/2312 20004KT P6SM SCT250 FM221400 25005KT P6SM FEW030 SCT250 FM221600 23008KT P6SM SCT040 FM221900 23009KT P6SM VCSH SCT050 FM230100 23004KT P6SM FEW060 SCT250
NOTAMs
Click for the latest NOTAMs
NOTAMs are issued by the DoD/FAA and will open in a separate window not controlled by AirNav.

 

 
 

Would you like to see your business listed on this page?

 If your business provides an interesting product or service to pilots, flight crews, aircraft, or users of the Brook Bridge Aerodrome, you should consider listing it here.  To start the listing process, click on the button below
 
Add a business
 

Other Pages about Brook Bridge Aerodrome

Update a link
 
Copyright © AirNav, LLC. All rights reserved. Privacy Policy  Contact